sensor_id;sensor_type;location;lat;lon;timestamp;temperature;humidity
46652;DHT22;32377;52.182;5.398;2022-10-15T00:01:15;11.60;99.90
46652;DHT22;32377;52.182;5.398;2022-10-15T00:03:42;11.70;99.90
46652;DHT22;32377;52.182;5.398;2022-10-15T00:06:11;11.70;99.90
46652;DHT22;32377;52.182;5.398;2022-10-15T00:08:37;11.70;99.90
46652;DHT22;32377;52.182;5.398;2022-10-15T00:11:11;11.70;99.90
46652;DHT22;32377;52.182;5.398;2022-10-15T00:13:38;11.70;99.90
46652;DHT22;32377;52.182;5.398;2022-10-15T00:16:07;11.70;99.90
46652;DHT22;32377;52.182;5.398;2022-10-15T00:18:34;11.70;99.90
46652;DHT22;32377;52.182;5.398;2022-10-15T00:20:59;11.80;99.90
46652;DHT22;32377;52.182;5.398;2022-10-15T00:23:25;11.70;99.90
46652;DHT22;32377;52.182;5.398;2022-10-15T00:26:03;11.80;99.90
46652;DHT22;32377;52.182;5.398;2022-10-15T00:28:29;11.80;99.90
46652;DHT22;32377;52.182;5.398;2022-10-15T00:31:12;11.80;99.90
46652;DHT22;32377;52.182;5.398;2022-10-15T00:33:38;11.80;99.90
46652;DHT22;32377;52.182;5.398;2022-10-15T00:36:15;11.80;99.90
46652;DHT22;32377;52.182;5.398;2022-10-15T00:38:42;11.90;99.90
46652;DHT22;32377;52.182;5.398;2022-10-15T00:49:56;11.90;99.90
46652;DHT22;32377;52.182;5.398;2022-10-15T00:52:30;12.00;99.90
46652;DHT22;32377;52.182;5.398;2022-10-15T00:55:02;12.00;99.90
46652;DHT22;32377;52.182;5.398;2022-10-15T00:57:30;11.90;99.90
46652;DHT22;32377;52.182;5.398;2022-10-15T00:59:57;12.00;99.90
46652;DHT22;32377;52.182;5.398;2022-10-15T01:02:24;12.00;99.90
46652;DHT22;32377;52.182;5.398;2022-10-15T01:04:50;12.00;99.90
46652;DHT22;32377;52.182;5.398;2022-10-15T01:07:16;12.00;99.90
46652;DHT22;32377;52.182;5.398;2022-10-15T01:09:42;12.00;99.90
46652;DHT22;32377;52.182;5.398;2022-10-15T01:12:48;12.00;99.90
46652;DHT22;32377;52.182;5.398;2022-10-15T01:15:18;12.10;99.90
46652;DHT22;32377;52.182;5.398;2022-10-15T01:17:51;12.00;99.90
46652;DHT22;32377;52.182;5.398;2022-10-15T01:32:16;11.90;99.90
46652;DHT22;32377;52.182;5.398;2022-10-15T01:37:26;11.90;99.90
46652;DHT22;32377;52.182;5.398;2022-10-15T01:42:49;11.90;99.90
46652;DHT22;32377;52.182;5.398;2022-10-15T01:45:21;11.90;99.90
46652;DHT22;32377;52.182;5.398;2022-10-15T01:47:55;11.80;99.90
46652;DHT22;32377;52.182;5.398;2022-10-15T01:50:24;11.80;99.90
46652;DHT22;32377;52.182;5.398;2022-10-15T01:52:53;11.70;99.90
46652;DHT22;32377;52.182;5.398;2022-10-15T01:55:21;11.70;99.90
46652;DHT22;32377;52.182;5.398;2022-10-15T01:57:48;11.70;99.90
46652;DHT22;32377;52.182;5.398;2022-10-15T02:00:15;11.70;99.90
46652;DHT22;32377;52.182;5.398;2022-10-15T02:02:41;11.60;99.90
46652;DHT22;32377;52.182;5.398;2022-10-15T02:05:11;11.60;99.90
46652;DHT22;32377;52.182;5.398;2022-10-15T02:07:54;11.60;99.90
46652;DHT22;32377;52.182;5.398;2022-10-15T02:16:35;11.60;99.90
46652;DHT22;32377;52.182;5.398;2022-10-15T02:19:23;11.50;99.90
46652;DHT22;32377;52.182;5.398;2022-10-15T02:21:56;11.50;99.90
46652;DHT22;32377;52.182;5.398;2022-10-15T02:24:26;11.50;99.90
46652;DHT22;32377;52.182;5.398;2022-10-15T02:26:56;11.40;99.90
46652;DHT22;32377;52.182;5.398;2022-10-15T02:29:24;11.40;99.90
46652;DHT22;32377;52.182;5.398;2022-10-15T02:31:52;11.50;99.90
46652;DHT22;32377;52.182;5.398;2022-10-15T02:34:21;11.50;99.90
46652;DHT22;32377;52.182;5.398;2022-10-15T02:36:50;11.50;99.90
46652;DHT22;32377;52.182;5.398;2022-10-15T02:39:20;11.50;99.90
46652;DHT22;32377;52.182;5.398;2022-10-15T02:41:47;11.60;99.90
46652;DHT22;32377;52.182;5.398;2022-10-15T02:44:12;11.60;99.90
46652;DHT22;32377;52.182;5.398;2022-10-15T02:46:38;11.60;99.90
46652;DHT22;32377;52.182;5.398;2022-10-15T02:49:03;11.70;99.90
46652;DHT22;32377;52.182;5.398;2022-10-15T02:51:33;11.60;99.90
46652;DHT22;32377;52.182;5.398;2022-10-15T02:54:00;11.60;99.90
46652;DHT22;32377;52.182;5.398;2022-10-15T02:56:26;11.60;99.90
46652;DHT22;32377;52.182;5.398;2022-10-15T02:58:52;11.60;99.90
46652;DHT22;32377;52.182;5.398;2022-10-15T03:01:18;11.60;99.90
46652;DHT22;32377;52.182;5.398;2022-10-15T03:03:43;11.50;99.90
46652;DHT22;32377;52.182;5.398;2022-10-15T03:06:09;11.50;99.90
46652;DHT22;32377;52.182;5.398;2022-10-15T03:08:34;11.50;99.90
46652;DHT22;32377;52.182;5.398;2022-10-15T03:11:00;11.40;99.90
46652;DHT22;32377;52.182;5.398;2022-10-15T03:13:27;11.30;99.90
46652;DHT22;32377;52.182;5.398;2022-10-15T03:15:53;11.30;99.90
46652;DHT22;32377;52.182;5.398;2022-10-15T03:18:19;11.30;99.90
46652;DHT22;32377;52.182;5.398;2022-10-15T03:20:54;11.30;99.90
46652;DHT22;32377;52.182;5.398;2022-10-15T03:23:20;11.30;99.90
46652;DHT22;32377;52.182;5.398;2022-10-15T03:25:46;11.20;99.90
46652;DHT22;32377;52.182;5.398;2022-10-15T03:28:12;11.20;99.90
46652;DHT22;32377;52.182;5.398;2022-10-15T03:30:37;11.10;99.90
46652;DHT22;32377;52.182;5.398;2022-10-15T03:33:03;11.10;99.90
46652;DHT22;32377;52.182;5.398;2022-10-15T03:35:29;11.00;99.90
46652;DHT22;32377;52.182;5.398;2022-10-15T03:37:54;11.00;99.90
46652;DHT22;32377;52.182;5.398;2022-10-15T03:40:20;10.90;99.90
46652;DHT22;32377;52.182;5.398;2022-10-15T03:42:51;10.80;99.90
46652;DHT22;32377;52.182;5.398;2022-10-15T03:45:18;10.80;99.90
46652;DHT22;32377;52.182;5.398;2022-10-15T03:47:44;10.80;99.90
46652;DHT22;32377;52.182;5.398;2022-10-15T03:50:10;10.70;99.90
46652;DHT22;32377;52.182;5.398;2022-10-15T03:52:36;10.70;99.90
46652;DHT22;32377;52.182;5.398;2022-10-15T03:55:03;10.80;99.90
46652;DHT22;32377;52.182;5.398;2022-10-15T03:57:29;10.80;99.90
46652;DHT22;32377;52.182;5.398;2022-10-15T03:59:54;10.80;99.90
46652;DHT22;32377;52.182;5.398;2022-10-15T04:02:20;10.80;99.90
46652;DHT22;32377;52.182;5.398;2022-10-15T04:04:45;10.80;99.90
46652;DHT22;32377;52.182;5.398;2022-10-15T04:07:11;10.80;99.90
46652;DHT22;32377;52.182;5.398;2022-10-15T04:09:37;10.80;99.90
46652;DHT22;32377;52.182;5.398;2022-10-15T04:12:03;10.80;99.90
46652;DHT22;32377;52.182;5.398;2022-10-15T04:14:28;10.80;99.90
46652;DHT22;32377;52.182;5.398;2022-10-15T04:16:55;10.80;99.90
46652;DHT22;32377;52.182;5.398;2022-10-15T04:19:20;10.80;99.90
46652;DHT22;32377;52.182;5.398;2022-10-15T04:21:46;10.90;99.90
46652;DHT22;32377;52.182;5.398;2022-10-15T04:24:12;10.90;99.90
46652;DHT22;32377;52.182;5.398;2022-10-15T04:26:38;10.90;99.90
46652;DHT22;32377;52.182;5.398;2022-10-15T04:29:03;10.90;99.90
46652;DHT22;32377;52.182;5.398;2022-10-15T04:31:29;10.90;99.90
46652;DHT22;32377;52.182;5.398;2022-10-15T04:33:54;10.90;99.90
46652;DHT22;32377;52.182;5.398;2022-10-15T04:36:20;10.80;99.90
46652;DHT22;32377;52.182;5.398;2022-10-15T04:38:46;10.80;99.90
46652;DHT22;32377;52.182;5.398;2022-10-15T04:41:11;10.80;99.90
46652;DHT22;32377;52.182;5.398;2022-10-15T04:43:38;10.80;99.90
46652;DHT22;32377;52.182;5.398;2022-10-15T04:46:05;10.80;99.90
46652;DHT22;32377;52.182;5.398;2022-10-15T04:48:33;10.90;99.90
46652;DHT22;32377;52.182;5.398;2022-10-15T04:51:19;10.80;99.90
46652;DHT22;32377;52.182;5.398;2022-10-15T04:53:45;10.80;99.90
46652;DHT22;32377;52.182;5.398;2022-10-15T04:56:13;10.80;99.90
46652;DHT22;32377;52.182;5.398;2022-10-15T04:58:40;10.90;99.90
46652;DHT22;32377;52.182;5.398;2022-10-15T05:01:09;10.90;99.90
46652;DHT22;32377;52.182;5.398;2022-10-15T05:03:39;10.90;99.90
46652;DHT22;32377;52.182;5.398;2022-10-15T05:06:08;10.90;99.90
46652;DHT22;32377;52.182;5.398;2022-10-15T05:08:35;11.00;99.90
46652;DHT22;32377;52.182;5.398;2022-10-15T05:11:03;11.10;99.90
46652;DHT22;32377;52.182;5.398;2022-10-15T05:13:29;11.10;99.90
46652;DHT22;32377;52.182;5.398;2022-10-15T05:15:55;11.20;99.90
46652;DHT22;32377;52.182;5.398;2022-10-15T05:18:21;11.20;99.90
46652;DHT22;32377;52.182;5.398;2022-10-15T05:20:47;11.30;99.90
46652;DHT22;32377;52.182;5.398;2022-10-15T05:23:12;11.30;99.90
46652;DHT22;32377;52.182;5.398;2022-10-15T05:25:38;11.30;99.90
46652;DHT22;32377;52.182;5.398;2022-10-15T05:28:04;11.30;99.90
46652;DHT22;32377;52.182;5.398;2022-10-15T05:30:30;11.30;99.90
46652;DHT22;32377;52.182;5.398;2022-10-15T05:32:55;11.20;99.90
46652;DHT22;32377;52.182;5.398;2022-10-15T05:35:21;11.30;99.90
46652;DHT22;32377;52.182;5.398;2022-10-15T05:37:48;11.30;99.90
46652;DHT22;32377;52.182;5.398;2022-10-15T05:40:14;11.30;99.90
46652;DHT22;32377;52.182;5.398;2022-10-15T05:42:39;11.30;99.90
46652;DHT22;32377;52.182;5.398;2022-10-15T05:45:05;11.40;99.90
46652;DHT22;32377;52.182;5.398;2022-10-15T05:47:31;11.50;99.90
46652;DHT22;32377;52.182;5.398;2022-10-15T05:49:56;11.60;99.90
46652;DHT22;32377;52.182;5.398;2022-10-15T05:52:22;11.70;99.90
46652;DHT22;32377;52.182;5.398;2022-10-15T05:54:48;11.70;99.90
46652;DHT22;32377;52.182;5.398;2022-10-15T05:57:13;11.80;99.90
46652;DHT22;32377;52.182;5.398;2022-10-15T05:59:39;11.80;99.90
46652;DHT22;32377;52.182;5.398;2022-10-15T06:02:04;11.90;99.90
46652;DHT22;32377;52.182;5.398;2022-10-15T06:04:30;12.00;99.90
46652;DHT22;32377;52.182;5.398;2022-10-15T06:06:57;11.90;99.90
46652;DHT22;32377;52.182;5.398;2022-10-15T06:09:24;12.00;99.90
46652;DHT22;32377;52.182;5.398;2022-10-15T06:11:50;12.00;99.90
46652;DHT22;32377;52.182;5.398;2022-10-15T06:14:16;12.00;99.90
46652;DHT22;32377;52.182;5.398;2022-10-15T06:16:41;12.00;99.90
46652;DHT22;32377;52.182;5.398;2022-10-15T06:19:07;12.00;99.90
46652;DHT22;32377;52.182;5.398;2022-10-15T06:21:32;12.10;99.90
46652;DHT22;32377;52.182;5.398;2022-10-15T06:23:58;12.10;99.90
46652;DHT22;32377;52.182;5.398;2022-10-15T06:26:23;12.10;99.90
46652;DHT22;32377;52.182;5.398;2022-10-15T06:28:49;12.10;99.90
46652;DHT22;32377;52.182;5.398;2022-10-15T06:31:15;12.10;99.90
46652;DHT22;32377;52.182;5.398;2022-10-15T06:33:40;12.20;99.90
46652;DHT22;32377;52.182;5.398;2022-10-15T06:36:08;12.10;99.90
46652;DHT22;32377;52.182;5.398;2022-10-15T06:38:34;12.10;99.90
46652;DHT22;32377;52.182;5.398;2022-10-15T06:41:03;12.20;99.90
46652;DHT22;32377;52.182;5.398;2022-10-15T06:43:29;12.20;99.90
46652;DHT22;32377;52.182;5.398;2022-10-15T06:45:58;12.20;99.90
46652;DHT22;32377;52.182;5.398;2022-10-15T06:48:23;12.20;99.90
46652;DHT22;32377;52.182;5.398;2022-10-15T06:50:49;12.20;99.90
46652;DHT22;32377;52.182;5.398;2022-10-15T06:53:15;12.30;99.90
46652;DHT22;32377;52.182;5.398;2022-10-15T06:55:41;12.20;99.90
46652;DHT22;32377;52.182;5.398;2022-10-15T06:58:06;12.30;99.90
46652;DHT22;32377;52.182;5.398;2022-10-15T07:00:32;12.30;99.90
46652;DHT22;32377;52.182;5.398;2022-10-15T07:03:05;12.30;99.90
46652;DHT22;32377;52.182;5.398;2022-10-15T07:05:32;12.30;99.90
46652;DHT22;32377;52.182;5.398;2022-10-15T07:07:57;12.40;99.90
46652;DHT22;32377;52.182;5.398;2022-10-15T07:10:24;12.40;99.90
46652;DHT22;32377;52.182;5.398;2022-10-15T07:12:50;12.40;99.90
46652;DHT22;32377;52.182;5.398;2022-10-15T07:15:16;12.50;99.90
46652;DHT22;32377;52.182;5.398;2022-10-15T07:17:51;12.50;99.90
46652;DHT22;32377;52.182;5.398;2022-10-15T07:20:18;12.50;99.90
46652;DHT22;32377;52.182;5.398;2022-10-15T07:22:44;12.50;99.90
46652;DHT22;32377;52.182;5.398;2022-10-15T07:25:10;12.50;99.90
46652;DHT22;32377;52.182;5.398;2022-10-15T07:27:37;12.50;99.90
46652;DHT22;32377;52.182;5.398;2022-10-15T07:30:04;12.50;99.90
46652;DHT22;32377;52.182;5.398;2022-10-15T07:32:29;12.60;99.90
46652;DHT22;32377;52.182;5.398;2022-10-15T07:34:55;12.60;99.90
46652;DHT22;32377;52.182;5.398;2022-10-15T07:37:21;12.70;99.90
46652;DHT22;32377;52.182;5.398;2022-10-15T07:39:46;12.70;99.90
46652;DHT22;32377;52.182;5.398;2022-10-15T07:42:12;12.70;99.90
46652;DHT22;32377;52.182;5.398;2022-10-15T07:44:37;12.70;99.90
46652;DHT22;32377;52.182;5.398;2022-10-15T07:47:03;12.80;99.90
46652;DHT22;32377;52.182;5.398;2022-10-15T07:49:28;12.80;99.90
46652;DHT22;32377;52.182;5.398;2022-10-15T07:51:54;12.80;99.90
46652;DHT22;32377;52.182;5.398;2022-10-15T07:54:20;12.90;99.90
46652;DHT22;32377;52.182;5.398;2022-10-15T07:56:45;12.80;99.90
46652;DHT22;32377;52.182;5.398;2022-10-15T07:59:11;12.90;99.90
46652;DHT22;32377;52.182;5.398;2022-10-15T08:01:36;12.90;99.90
46652;DHT22;32377;52.182;5.398;2022-10-15T08:04:02;13.00;99.90
46652;DHT22;32377;52.182;5.398;2022-10-15T08:06:29;13.00;99.90
46652;DHT22;32377;52.182;5.398;2022-10-15T08:08:55;13.10;99.90
46652;DHT22;32377;52.182;5.398;2022-10-15T08:11:20;13.10;99.90
46652;DHT22;32377;52.182;5.398;2022-10-15T08:13:46;13.20;99.90
46652;DHT22;32377;52.182;5.398;2022-10-15T08:16:14;13.30;99.90
46652;DHT22;32377;52.182;5.398;2022-10-15T08:18:40;13.30;99.90
46652;DHT22;32377;52.182;5.398;2022-10-15T08:21:07;13.30;99.90
46652;DHT22;32377;52.182;5.398;2022-10-15T08:23:33;13.40;99.90
46652;DHT22;32377;52.182;5.398;2022-10-15T08:25:59;13.40;99.90
46652;DHT22;32377;52.182;5.398;2022-10-15T08:28:29;13.50;99.90
46652;DHT22;32377;52.182;5.398;2022-10-15T08:30:59;13.40;99.90
46652;DHT22;32377;52.182;5.398;2022-10-15T08:33:26;13.40;99.90
46652;DHT22;32377;52.182;5.398;2022-10-15T08:35:52;13.40;99.90
46652;DHT22;32377;52.182;5.398;2022-10-15T08:38:17;13.40;99.90
46652;DHT22;32377;52.182;5.398;2022-10-15T08:40:51;13.40;99.90
46652;DHT22;32377;52.182;5.398;2022-10-15T08:43:35;13.50;99.90
46652;DHT22;32377;52.182;5.398;2022-10-15T08:46:12;13.60;99.90
46652;DHT22;32377;52.182;5.398;2022-10-15T08:48:50;13.70;99.90
46652;DHT22;32377;52.182;5.398;2022-10-15T08:51:22;13.70;99.90
46652;DHT22;32377;52.182;5.398;2022-10-15T08:53:58;13.80;99.90
46652;DHT22;32377;52.182;5.398;2022-10-15T08:56:37;13.90;99.90
46652;DHT22;32377;52.182;5.398;2022-10-15T08:59:40;14.00;99.90
46652;DHT22;32377;52.182;5.398;2022-10-15T09:02:14;14.10;99.90
46652;DHT22;32377;52.182;5.398;2022-10-15T09:04:47;14.30;99.90
46652;DHT22;32377;52.182;5.398;2022-10-15T09:10:16;14.40;99.90
46652;DHT22;32377;52.182;5.398;2022-10-15T09:12:54;14.40;99.90
46652;DHT22;32377;52.182;5.398;2022-10-15T09:15:23;14.50;99.90
46652;DHT22;32377;52.182;5.398;2022-10-15T09:17:51;14.60;99.90
46652;DHT22;32377;52.182;5.398;2022-10-15T09:20:29;14.70;99.90
46652;DHT22;32377;52.182;5.398;2022-10-15T09:22:56;14.70;99.90
46652;DHT22;32377;52.182;5.398;2022-10-15T09:25:23;14.70;99.90
46652;DHT22;32377;52.182;5.398;2022-10-15T09:27:50;14.60;99.90
46652;DHT22;32377;52.182;5.398;2022-10-15T09:33:14;14.80;99.90
46652;DHT22;32377;52.182;5.398;2022-10-15T09:36:02;14.80;99.90
46652;DHT22;32377;52.182;5.398;2022-10-15T09:39:00;14.70;99.90
46652;DHT22;32377;52.182;5.398;2022-10-15T09:41:35;14.80;99.90
46652;DHT22;32377;52.182;5.398;2022-10-15T09:44:12;14.90;99.90
46652;DHT22;32377;52.182;5.398;2022-10-15T09:46:46;14.80;99.90
46652;DHT22;32377;52.182;5.398;2022-10-15T09:49:17;14.80;99.90
46652;DHT22;32377;52.182;5.398;2022-10-15T09:54:35;14.70;99.90
46652;DHT22;32377;52.182;5.398;2022-10-15T09:57:02;14.60;99.90
46652;DHT22;32377;52.182;5.398;2022-10-15T09:59:32;14.60;99.90
46652;DHT22;32377;52.182;5.398;2022-10-15T10:02:00;14.60;99.90
46652;DHT22;32377;52.182;5.398;2022-10-15T10:04:32;14.60;99.90
46652;DHT22;32377;52.182;5.398;2022-10-15T10:07:01;14.60;99.90
46652;DHT22;32377;52.182;5.398;2022-10-15T10:09:47;14.60;99.90
46652;DHT22;32377;52.182;5.398;2022-10-15T10:12:19;14.50;99.90
46652;DHT22;32377;52.182;5.398;2022-10-15T10:15:06;14.50;99.90
46652;DHT22;32377;52.182;5.398;2022-10-15T10:17:34;14.50;99.90
46652;DHT22;32377;52.182;5.398;2022-10-15T10:22:50;14.50;99.90
46652;DHT22;32377;52.182;5.398;2022-10-15T10:27:52;14.50;99.90
46652;DHT22;32377;52.182;5.398;2022-10-15T10:30:19;14.50;99.90
46652;DHT22;32377;52.182;5.398;2022-10-15T10:32:45;14.70;99.90
46652;DHT22;32377;52.182;5.398;2022-10-15T10:35:22;14.80;99.90
46652;DHT22;32377;52.182;5.398;2022-10-15T10:37:48;14.80;99.90
46652;DHT22;32377;52.182;5.398;2022-10-15T10:40:28;14.80;99.90
46652;DHT22;32377;52.182;5.398;2022-10-15T10:46:20;14.80;99.90
46652;DHT22;32377;52.182;5.398;2022-10-15T10:48:48;14.90;99.90
46652;DHT22;32377;52.182;5.398;2022-10-15T10:51:20;14.90;99.90
46652;DHT22;32377;52.182;5.398;2022-10-15T10:53:50;14.80;99.90
46652;DHT22;32377;52.182;5.398;2022-10-15T10:56:21;14.80;99.90
46652;DHT22;32377;52.182;5.398;2022-10-15T10:58:50;14.80;99.90
46652;DHT22;32377;52.182;5.398;2022-10-15T11:01:16;14.80;99.90
46652;DHT22;32377;52.182;5.398;2022-10-15T11:03:44;14.70;99.90
46652;DHT22;32377;52.182;5.398;2022-10-15T11:12:09;14.70;99.90
46652;DHT22;32377;52.182;5.398;2022-10-15T11:14:52;14.60;99.90
46652;DHT22;32377;52.182;5.398;2022-10-15T11:17:47;14.60;99.90
46652;DHT22;32377;52.182;5.398;2022-10-15T11:20:30;14.70;99.90
46652;DHT22;32377;52.182;5.398;2022-10-15T11:26:21;14.80;99.90
46652;DHT22;32377;52.182;5.398;2022-10-15T11:35:18;14.90;99.90
46652;DHT22;32377;52.182;5.398;2022-10-15T11:40:56;14.90;99.90
46652;DHT22;32377;52.182;5.398;2022-10-15T11:49:49;14.90;99.90
46652;DHT22;32377;52.182;5.398;2022-10-15T11:52:33;14.90;99.90
46652;DHT22;32377;52.182;5.398;2022-10-15T11:55:01;14.90;99.90
46652;DHT22;32377;52.182;5.398;2022-10-15T11:57:31;14.90;99.90
46652;DHT22;32377;52.182;5.398;2022-10-15T12:00:44;14.90;99.90
46652;DHT22;32377;52.182;5.398;2022-10-15T12:02:50;15.00;99.90
46652;DHT22;32377;52.182;5.398;2022-10-15T12:07:52;15.00;99.90
46652;DHT22;32377;52.182;5.398;2022-10-15T12:13:17;15.10;99.90
46652;DHT22;32377;52.182;5.398;2022-10-15T12:16:00;15.10;99.90
46652;DHT22;32377;52.182;5.398;2022-10-15T12:18:40;15.10;99.90
46652;DHT22;32377;52.182;5.398;2022-10-15T12:21:28;15.20;99.90
46652;DHT22;32377;52.182;5.398;2022-10-15T12:23:54;15.30;99.90
46652;DHT22;32377;52.182;5.398;2022-10-15T12:28:53;15.30;99.90
46652;DHT22;32377;52.182;5.398;2022-10-15T12:31:19;15.30;99.90
46652;DHT22;32377;52.182;5.398;2022-10-15T12:36:22;15.40;99.90
46652;DHT22;32377;52.182;5.398;2022-10-15T12:39:05;15.50;99.90
46652;DHT22;32377;52.182;5.398;2022-10-15T12:41:39;15.30;99.90
46652;DHT22;32377;52.182;5.398;2022-10-15T12:44:19;15.50;99.90
46652;DHT22;32377;52.182;5.398;2022-10-15T12:46:45;15.40;99.90
46652;DHT22;32377;52.182;5.398;2022-10-15T12:51:59;15.50;99.90
46652;DHT22;32377;52.182;5.398;2022-10-15T12:54:41;15.40;99.90
46652;DHT22;32377;52.182;5.398;2022-10-15T13:00:00;15.60;99.90
46652;DHT22;32377;52.182;5.398;2022-10-15T13:02:40;15.60;99.90
46652;DHT22;32377;52.182;5.398;2022-10-15T13:05:22;15.70;99.90
46652;DHT22;32377;52.182;5.398;2022-10-15T13:07:48;15.60;99.90
46652;DHT22;32377;52.182;5.398;2022-10-15T13:10:23;15.60;99.90
46652;DHT22;32377;52.182;5.398;2022-10-15T13:12:55;15.60;99.90
46652;DHT22;32377;52.182;5.398;2022-10-15T13:15:24;15.70;99.90
46652;DHT22;32377;52.182;5.398;2022-10-15T13:17:51;15.60;99.90
46652;DHT22;32377;52.182;5.398;2022-10-15T13:20:43;15.60;99.90
46652;DHT22;32377;52.182;5.398;2022-10-15T13:23:26;15.50;99.90
46652;DHT22;32377;52.182;5.398;2022-10-15T13:26:16;15.60;99.90
46652;DHT22;32377;52.182;5.398;2022-10-15T13:28:43;15.80;99.90
46652;DHT22;32377;52.182;5.398;2022-10-15T13:31:14;15.80;99.90
46652;DHT22;32377;52.182;5.398;2022-10-15T13:33:45;15.80;99.90
46652;DHT22;32377;52.182;5.398;2022-10-15T13:36:22;15.90;99.90
46652;DHT22;32377;52.182;5.398;2022-10-15T13:38:58;15.90;99.90
46652;DHT22;32377;52.182;5.398;2022-10-15T13:41:29;15.80;99.90
46652;DHT22;32377;52.182;5.398;2022-10-15T13:43:55;15.90;99.90
46652;DHT22;32377;52.182;5.398;2022-10-15T13:46:31;16.00;99.90
46652;DHT22;32377;52.182;5.398;2022-10-15T13:48:59;16.20;99.90
46652;DHT22;32377;52.182;5.398;2022-10-15T13:51:31;16.10;99.90
46652;DHT22;32377;52.182;5.398;2022-10-15T13:53:58;16.00;99.90
46652;DHT22;32377;52.182;5.398;2022-10-15T13:56:31;16.00;99.90
46652;DHT22;32377;52.182;5.398;2022-10-15T13:58:59;16.10;99.90
46652;DHT22;32377;52.182;5.398;2022-10-15T14:01:26;16.10;99.90
46652;DHT22;32377;52.182;5.398;2022-10-15T14:03:59;16.20;99.90
46652;DHT22;32377;52.182;5.398;2022-10-15T14:06:31;16.20;99.90
46652;DHT22;32377;52.182;5.398;2022-10-15T14:08:59;16.30;99.90
46652;DHT22;32377;52.182;5.398;2022-10-15T14:11:26;16.30;99.90
46652;DHT22;32377;52.182;5.398;2022-10-15T14:13:56;16.20;99.90
46652;DHT22;32377;52.182;5.398;2022-10-15T14:16:32;16.20;99.90
46652;DHT22;32377;52.182;5.398;2022-10-15T14:19:09;16.20;99.90
46652;DHT22;32377;52.182;5.398;2022-10-15T14:21:36;16.20;99.90
46652;DHT22;32377;52.182;5.398;2022-10-15T14:24:18;16.20;99.90
46652;DHT22;32377;52.182;5.398;2022-10-15T14:26:45;16.30;99.90
46652;DHT22;32377;52.182;5.398;2022-10-15T14:31:52;16.20;99.90
46652;DHT22;32377;52.182;5.398;2022-10-15T14:36:59;16.20;99.90
46652;DHT22;32377;52.182;5.398;2022-10-15T14:39:33;16.20;99.90
46652;DHT22;32377;52.182;5.398;2022-10-15T14:42:06;16.20;99.90
46652;DHT22;32377;52.182;5.398;2022-10-15T14:44:46;16.20;99.90
46652;DHT22;32377;52.182;5.398;2022-10-15T14:47:20;16.30;99.90
46652;DHT22;32377;52.182;5.398;2022-10-15T14:49:47;16.30;99.90
46652;DHT22;32377;52.182;5.398;2022-10-15T14:52:16;16.20;99.90
46652;DHT22;32377;52.182;5.398;2022-10-15T14:54:50;16.10;99.90
46652;DHT22;32377;52.182;5.398;2022-10-15T14:57:27;16.10;99.90
46652;DHT22;32377;52.182;5.398;2022-10-15T14:59:54;16.10;99.90
46652;DHT22;32377;52.182;5.398;2022-10-15T15:02:23;16.00;99.90
46652;DHT22;32377;52.182;5.398;2022-10-15T15:07:39;15.70;99.90
46652;DHT22;32377;52.182;5.398;2022-10-15T15:10:07;15.70;99.90
46652;DHT22;32377;52.182;5.398;2022-10-15T15:12:34;15.60;99.90
46652;DHT22;32377;52.182;5.398;2022-10-15T15:15:00;15.60;99.90
46652;DHT22;32377;52.182;5.398;2022-10-15T15:17:27;15.60;99.90
46652;DHT22;32377;52.182;5.398;2022-10-15T15:19:54;15.60;99.90
46652;DHT22;32377;52.182;5.398;2022-10-15T15:22:28;15.50;99.90
46652;DHT22;32377;52.182;5.398;2022-10-15T15:24:55;15.60;99.90
46652;DHT22;32377;52.182;5.398;2022-10-15T15:27:25;15.50;99.90
46652;DHT22;32377;52.182;5.398;2022-10-15T15:29:51;15.50;99.90
46652;DHT22;32377;52.182;5.398;2022-10-15T15:32:18;15.50;99.90
46652;DHT22;32377;52.182;5.398;2022-10-15T15:34:44;15.40;99.90
46652;DHT22;32377;52.182;5.398;2022-10-15T15:37:18;15.40;99.90
46652;DHT22;32377;52.182;5.398;2022-10-15T15:39:44;15.30;99.90
46652;DHT22;32377;52.182;5.398;2022-10-15T15:42:17;15.20;99.90
46652;DHT22;32377;52.182;5.398;2022-10-15T15:44:43;15.10;99.90
46652;DHT22;32377;52.182;5.398;2022-10-15T15:47:09;15.00;99.90
46652;DHT22;32377;52.182;5.398;2022-10-15T15:49:36;14.90;99.90
46652;DHT22;32377;52.182;5.398;2022-10-15T15:52:03;14.90;99.90
46652;DHT22;32377;52.182;5.398;2022-10-15T15:54:30;14.80;99.90
46652;DHT22;32377;52.182;5.398;2022-10-15T15:56:55;14.80;99.90
46652;DHT22;32377;52.182;5.398;2022-10-15T15:59:21;14.70;99.90
46652;DHT22;32377;52.182;5.398;2022-10-15T16:01:47;14.70;99.90
46652;DHT22;32377;52.182;5.398;2022-10-15T16:04:13;14.60;99.90
46652;DHT22;32377;52.182;5.398;2022-10-15T16:06:39;14.50;99.90
46652;DHT22;32377;52.182;5.398;2022-10-15T16:09:05;14.50;99.90
46652;DHT22;32377;52.182;5.398;2022-10-15T16:11:31;14.50;99.90
46652;DHT22;32377;52.182;5.398;2022-10-15T16:13:57;14.40;99.90
46652;DHT22;32377;52.182;5.398;2022-10-15T16:16:24;14.40;99.90
46652;DHT22;32377;52.182;5.398;2022-10-15T16:18:50;14.30;99.90
46652;DHT22;32377;52.182;5.398;2022-10-15T16:21:25;14.30;99.90
46652;DHT22;32377;52.182;5.398;2022-10-15T16:23:51;14.20;99.90
46652;DHT22;32377;52.182;5.398;2022-10-15T16:26:17;14.20;99.90
46652;DHT22;32377;52.182;5.398;2022-10-15T16:28:43;14.10;99.90
46652;DHT22;32377;52.182;5.398;2022-10-15T16:31:23;14.10;99.90
46652;DHT22;32377;52.182;5.398;2022-10-15T16:33:49;14.10;99.90
46652;DHT22;32377;52.182;5.398;2022-10-15T16:36:15;14.00;99.90
46652;DHT22;32377;52.182;5.398;2022-10-15T16:38:42;13.90;99.90
46652;DHT22;32377;52.182;5.398;2022-10-15T16:41:08;13.90;99.90
46652;DHT22;32377;52.182;5.398;2022-10-15T16:43:34;13.90;99.90
46652;DHT22;32377;52.182;5.398;2022-10-15T16:46:01;13.80;99.90
46652;DHT22;32377;52.182;5.398;2022-10-15T16:48:28;13.80;99.90
46652;DHT22;32377;52.182;5.398;2022-10-15T16:51:02;13.70;99.90
46652;DHT22;32377;52.182;5.398;2022-10-15T16:53:28;13.70;99.90
46652;DHT22;32377;52.182;5.398;2022-10-15T16:55:59;13.60;99.90
46652;DHT22;32377;52.182;5.398;2022-10-15T16:58:25;13.50;99.90
46652;DHT22;32377;52.182;5.398;2022-10-15T17:00:51;13.50;99.90
46652;DHT22;32377;52.182;5.398;2022-10-15T17:03:16;13.40;99.90
46652;DHT22;32377;52.182;5.398;2022-10-15T17:05:42;13.30;99.90
46652;DHT22;32377;52.182;5.398;2022-10-15T17:08:08;13.30;99.90
46652;DHT22;32377;52.182;5.398;2022-10-15T17:10:33;13.30;99.90
46652;DHT22;32377;52.182;5.398;2022-10-15T17:12:59;13.30;99.90
46652;DHT22;32377;52.182;5.398;2022-10-15T17:15:25;13.30;99.90
46652;DHT22;32377;52.182;5.398;2022-10-15T17:17:50;13.20;99.90
46652;DHT22;32377;52.182;5.398;2022-10-15T17:20:16;13.20;99.90
46652;DHT22;32377;52.182;5.398;2022-10-15T17:22:41;13.10;99.90